sensor_id;sensor_type;location;lat;lon;timestamp;temperature;humidity
30702;DHT22;17451;49.908;7.980;2022-09-09T00:00:23;18.00;99.90
30702;DHT22;17451;49.908;7.980;2022-09-09T00:03:12;18.00;99.90
30702;DHT22;17451;49.908;7.980;2022-09-09T00:08:27;18.10;99.90
30702;DHT22;17451;49.908;7.980;2022-09-09T00:10:59;18.10;99.90
30702;DHT22;17451;49.908;7.980;2022-09-09T00:13:29;18.00;99.90
30702;DHT22;17451;49.908;7.980;2022-09-09T00:18:26;17.70;99.90
30702;DHT22;17451;49.908;7.980;2022-09-09T00:20:56;17.60;99.90
30702;DHT22;17451;49.908;7.980;2022-09-09T00:23:37;17.70;99.90
30702;DHT22;17451;49.908;7.980;2022-09-09T00:29:03;17.80;99.90
30702;DHT22;17451;49.908;7.980;2022-09-09T00:31:31;17.80;99.90
30702;DHT22;17451;49.908;7.980;2022-09-09T00:33:58;17.90;99.90
30702;DHT22;17451;49.908;7.980;2022-09-09T00:36:30;17.90;99.90
30702;DHT22;17451;49.908;7.980;2022-09-09T00:39:00;17.90;99.90
30702;DHT22;17451;49.908;7.980;2022-09-09T00:44:12;17.80;99.90
30702;DHT22;17451;49.908;7.980;2022-09-09T00:46:49;17.80;99.90
30702;DHT22;17451;49.908;7.980;2022-09-09T00:54:32;17.50;99.90
30702;DHT22;17451;49.908;7.980;2022-09-09T00:59:47;17.60;99.90
30702;DHT22;17451;49.908;7.980;2022-09-09T01:04:44;17.80;99.90
30702;DHT22;17451;49.908;7.980;2022-09-09T01:07:18;17.80;99.90
30702;DHT22;17451;49.908;7.980;2022-09-09T01:12:17;17.80;99.90
30702;DHT22;17451;49.908;7.980;2022-09-09T01:14:45;17.80;99.90
30702;DHT22;17451;49.908;7.980;2022-09-09T01:17:14;17.90;99.90
30702;DHT22;17451;49.908;7.980;2022-09-09T01:27:16;17.80;99.90
30702;DHT22;17451;49.908;7.980;2022-09-09T01:29:45;17.90;99.90
30702;DHT22;17451;49.908;7.980;2022-09-09T01:32:41;17.90;99.90
30702;DHT22;17451;49.908;7.980;2022-09-09T01:35:10;17.90;99.90
30702;DHT22;17451;49.908;7.980;2022-09-09T01:37:40;17.90;99.90
30702;DHT22;17451;49.908;7.980;2022-09-09T01:40:06;18.00;99.90
30702;DHT22;17451;49.908;7.980;2022-09-09T01:42:34;17.80;99.90
30702;DHT22;17451;49.908;7.980;2022-09-09T01:45:00;17.60;99.90
30702;DHT22;17451;49.908;7.980;2022-09-09T01:47:31;17.60;99.90
30702;DHT22;17451;49.908;7.980;2022-09-09T01:49:57;17.40;99.90
30702;DHT22;17451;49.908;7.980;2022-09-09T01:52:23;17.50;99.90
30702;DHT22;17451;49.908;7.980;2022-09-09T01:54:49;17.20;99.90
30702;DHT22;17451;49.908;7.980;2022-09-09T02:02:19;17.30;99.90
30702;DHT22;17451;49.908;7.980;2022-09-09T02:04:48;17.40;99.90
30702;DHT22;17451;49.908;7.980;2022-09-09T02:09:57;17.50;99.90
30702;DHT22;17451;49.908;7.980;2022-09-09T02:12:24;17.60;99.90
30702;DHT22;17451;49.908;7.980;2022-09-09T02:15:04;17.60;99.90
30702;DHT22;17451;49.908;7.980;2022-09-09T02:17:33;17.60;99.90
30702;DHT22;17451;49.908;7.980;2022-09-09T02:20:06;17.60;99.90
30702;DHT22;17451;49.908;7.980;2022-09-09T02:22:33;17.50;99.90
30702;DHT22;17451;49.908;7.980;2022-09-09T02:25:00;17.50;99.90
30702;DHT22;17451;49.908;7.980;2022-09-09T02:27:27;17.40;99.90
30702;DHT22;17451;49.908;7.980;2022-09-09T02:29:53;17.30;99.90
30702;DHT22;17451;49.908;7.980;2022-09-09T02:32:21;17.20;99.90
30702;DHT22;17451;49.908;7.980;2022-09-09T02:34:49;17.10;99.90
30702;DHT22;17451;49.908;7.980;2022-09-09T02:37:17;17.10;99.90
30702;DHT22;17451;49.908;7.980;2022-09-09T02:39:44;17.20;99.90
30702;DHT22;17451;49.908;7.980;2022-09-09T02:42:10;17.10;99.90
30702;DHT22;17451;49.908;7.980;2022-09-09T02:44:36;17.00;99.90
30702;DHT22;17451;49.908;7.980;2022-09-09T02:52:00;16.60;99.90
30702;DHT22;17451;49.908;7.980;2022-09-09T02:54:27;16.80;99.90
30702;DHT22;17451;49.908;7.980;2022-09-09T02:56:57;16.90;99.90
30702;DHT22;17451;49.908;7.980;2022-09-09T02:59:28;16.80;99.90
30702;DHT22;17451;49.908;7.980;2022-09-09T03:01:55;17.00;99.90
30702;DHT22;17451;49.908;7.980;2022-09-09T03:04:21;16.80;99.90
30702;DHT22;17451;49.908;7.980;2022-09-09T03:06:47;16.90;99.90
30702;DHT22;17451;49.908;7.980;2022-09-09T03:09:12;16.90;99.90
30702;DHT22;17451;49.908;7.980;2022-09-09T03:11:38;17.00;99.90
30702;DHT22;17451;49.908;7.980;2022-09-09T03:14:04;16.80;99.90
30702;DHT22;17451;49.908;7.980;2022-09-09T03:16:29;16.90;99.90
30702;DHT22;17451;49.908;7.980;2022-09-09T03:18:55;16.70;99.90
30702;DHT22;17451;49.908;7.980;2022-09-09T03:21:21;16.80;99.90
30702;DHT22;17451;49.908;7.980;2022-09-09T03:23:47;16.80;99.90
30702;DHT22;17451;49.908;7.980;2022-09-09T03:26:12;17.00;99.90
30702;DHT22;17451;49.908;7.980;2022-09-09T03:28:40;17.10;99.90
30702;DHT22;17451;49.908;7.980;2022-09-09T03:31:06;17.20;99.90
30702;DHT22;17451;49.908;7.980;2022-09-09T03:33:36;17.20;99.90
30702;DHT22;17451;49.908;7.980;2022-09-09T03:36:02;17.10;99.90
30702;DHT22;17451;49.908;7.980;2022-09-09T03:38:28;17.10;99.90
30702;DHT22;17451;49.908;7.980;2022-09-09T03:40:54;17.00;99.90
30702;DHT22;17451;49.908;7.980;2022-09-09T03:43:21;17.00;99.90
30702;DHT22;17451;49.908;7.980;2022-09-09T03:45:46;17.10;99.90
30702;DHT22;17451;49.908;7.980;2022-09-09T03:48:13;17.00;99.90
30702;DHT22;17451;49.908;7.980;2022-09-09T03:50:48;17.10;99.90
30702;DHT22;17451;49.908;7.980;2022-09-09T03:53:14;17.20;99.90
30702;DHT22;17451;49.908;7.980;2022-09-09T03:55:46;17.30;99.90
30702;DHT22;17451;49.908;7.980;2022-09-09T03:58:12;17.40;99.90
30702;DHT22;17451;49.908;7.980;2022-09-09T04:00:38;17.40;99.90
30702;DHT22;17451;49.908;7.980;2022-09-09T04:03:08;17.50;99.90
30702;DHT22;17451;49.908;7.980;2022-09-09T04:05:34;17.30;99.90
30702;DHT22;17451;49.908;7.980;2022-09-09T04:08:00;17.40;99.90
30702;DHT22;17451;49.908;7.980;2022-09-09T04:10:25;17.30;99.90
30702;DHT22;17451;49.908;7.980;2022-09-09T04:12:51;17.20;99.90
30702;DHT22;17451;49.908;7.980;2022-09-09T04:15:17;17.30;99.90
30702;DHT22;17451;49.908;7.980;2022-09-09T04:17:43;17.10;99.90
30702;DHT22;17451;49.908;7.980;2022-09-09T04:20:09;16.80;99.90
30702;DHT22;17451;49.908;7.980;2022-09-09T04:22:37;16.80;99.90
30702;DHT22;17451;49.908;7.980;2022-09-09T04:25:04;17.00;99.90
30702;DHT22;17451;49.908;7.980;2022-09-09T04:27:31;17.00;99.90
30702;DHT22;17451;49.908;7.980;2022-09-09T04:29:57;16.80;99.90
30702;DHT22;17451;49.908;7.980;2022-09-09T04:32:22;16.90;99.90
30702;DHT22;17451;49.908;7.980;2022-09-09T04:34:48;17.00;99.90
30702;DHT22;17451;49.908;7.980;2022-09-09T04:37:14;17.10;99.90
30702;DHT22;17451;49.908;7.980;2022-09-09T04:39:40;17.10;99.90
30702;DHT22;17451;49.908;7.980;2022-09-09T04:42:05;17.10;99.90
30702;DHT22;17451;49.908;7.980;2022-09-09T04:44:31;17.10;99.90
30702;DHT22;17451;49.908;7.980;2022-09-09T04:46:56;17.10;99.90
30702;DHT22;17451;49.908;7.980;2022-09-09T04:49:23;17.10;99.90
30702;DHT22;17451;49.908;7.980;2022-09-09T04:51:48;16.90;99.90
30702;DHT22;17451;49.908;7.980;2022-09-09T04:54:14;16.90;99.90
30702;DHT22;17451;49.908;7.980;2022-09-09T04:56:40;17.00;99.90
30702;DHT22;17451;49.908;7.980;2022-09-09T04:59:07;16.80;99.90
30702;DHT22;17451;49.908;7.980;2022-09-09T05:01:33;16.80;99.90
30702;DHT22;17451;49.908;7.980;2022-09-09T05:03:59;16.80;99.90
30702;DHT22;17451;49.908;7.980;2022-09-09T05:06:24;16.90;99.90
30702;DHT22;17451;49.908;7.980;2022-09-09T05:08:50;17.00;99.90
30702;DHT22;17451;49.908;7.980;2022-09-09T05:11:17;17.00;99.90
30702;DHT22;17451;49.908;7.980;2022-09-09T05:13:43;17.10;99.90
30702;DHT22;17451;49.908;7.980;2022-09-09T05:16:09;17.20;99.90
30702;DHT22;17451;49.908;7.980;2022-09-09T05:18:37;17.30;99.90
30702;DHT22;17451;49.908;7.980;2022-09-09T05:21:02;17.30;99.90
30702;DHT22;17451;49.908;7.980;2022-09-09T05:23:28;17.30;99.90
30702;DHT22;17451;49.908;7.980;2022-09-09T05:25:57;17.30;99.90
30702;DHT22;17451;49.908;7.980;2022-09-09T05:28:24;17.30;99.90
30702;DHT22;17451;49.908;7.980;2022-09-09T05:33:23;17.20;99.90
30702;DHT22;17451;49.908;7.980;2022-09-09T05:35:54;17.20;99.90
30702;DHT22;17451;49.908;7.980;2022-09-09T05:38:21;17.20;99.90
30702;DHT22;17451;49.908;7.980;2022-09-09T05:40:49;17.20;99.90
30702;DHT22;17451;49.908;7.980;2022-09-09T05:43:15;17.20;99.90
30702;DHT22;17451;49.908;7.980;2022-09-09T05:45:40;17.00;99.90
30702;DHT22;17451;49.908;7.980;2022-09-09T05:48:06;17.00;99.90
30702;DHT22;17451;49.908;7.980;2022-09-09T05:50:33;16.90;99.90
30702;DHT22;17451;49.908;7.980;2022-09-09T05:52:58;17.10;99.90
30702;DHT22;17451;49.908;7.980;2022-09-09T05:55:24;17.10;99.90
30702;DHT22;17451;49.908;7.980;2022-09-09T05:57:51;17.10;99.90
30702;DHT22;17451;49.908;7.980;2022-09-09T06:00:17;17.10;99.90
30702;DHT22;17451;49.908;7.980;2022-09-09T06:02:43;16.90;99.90
30702;DHT22;17451;49.908;7.980;2022-09-09T06:05:09;16.90;99.90
30702;DHT22;17451;49.908;7.980;2022-09-09T06:07:36;16.90;99.90
30702;DHT22;17451;49.908;7.980;2022-09-09T06:10:02;17.00;99.90
30702;DHT22;17451;49.908;7.980;2022-09-09T06:12:28;17.10;99.90
30702;DHT22;17451;49.908;7.980;2022-09-09T06:14:54;17.20;99.90
30702;DHT22;17451;49.908;7.980;2022-09-09T06:17:19;17.20;99.90
30702;DHT22;17451;49.908;7.980;2022-09-09T06:19:45;17.30;99.90
30702;DHT22;17451;49.908;7.980;2022-09-09T06:22:10;17.40;99.90
30702;DHT22;17451;49.908;7.980;2022-09-09T06:24:37;17.30;99.90
30702;DHT22;17451;49.908;7.980;2022-09-09T06:27:03;17.40;99.90
30702;DHT22;17451;49.908;7.980;2022-09-09T06:29:30;17.40;99.90
30702;DHT22;17451;49.908;7.980;2022-09-09T06:31:56;17.50;99.90
30702;DHT22;17451;49.908;7.980;2022-09-09T06:34:21;17.50;99.90
30702;DHT22;17451;49.908;7.980;2022-09-09T06:36:47;17.50;99.90
30702;DHT22;17451;49.908;7.980;2022-09-09T06:39:13;17.50;99.90
30702;DHT22;17451;49.908;7.980;2022-09-09T06:41:40;17.50;99.90
30702;DHT22;17451;49.908;7.980;2022-09-09T06:44:07;17.50;99.90
30702;DHT22;17451;49.908;7.980;2022-09-09T06:46:33;17.50;99.90
30702;DHT22;17451;49.908;7.980;2022-09-09T06:49:01;17.40;99.90
30702;DHT22;17451;49.908;7.980;2022-09-09T06:51:31;17.50;99.90
30702;DHT22;17451;49.908;7.980;2022-09-09T06:53:57;17.70;99.90
30702;DHT22;17451;49.908;7.980;2022-09-09T06:56:29;17.50;99.90
30702;DHT22;17451;49.908;7.980;2022-09-09T06:58:55;17.40;99.90
30702;DHT22;17451;49.908;7.980;2022-09-09T07:01:22;17.50;99.90
30702;DHT22;17451;49.908;7.980;2022-09-09T07:03:49;17.60;99.90
30702;DHT22;17451;49.908;7.980;2022-09-09T07:06:16;17.70;99.90
30702;DHT22;17451;49.908;7.980;2022-09-09T07:08:43;17.80;99.90
30702;DHT22;17451;49.908;7.980;2022-09-09T07:11:09;17.70;99.90
30702;DHT22;17451;49.908;7.980;2022-09-09T07:13:36;17.70;99.90
30702;DHT22;17451;49.908;7.980;2022-09-09T07:16:06;17.80;99.90
30702;DHT22;17451;49.908;7.980;2022-09-09T07:18:32;17.80;99.90
30702;DHT22;17451;49.908;7.980;2022-09-09T07:20:58;17.90;99.90
30702;DHT22;17451;49.908;7.980;2022-09-09T07:23:24;18.00;99.90
30702;DHT22;17451;49.908;7.980;2022-09-09T07:25:50;18.00;99.90
30702;DHT22;17451;49.908;7.980;2022-09-09T07:28:16;18.10;99.90
30702;DHT22;17451;49.908;7.980;2022-09-09T07:30:42;18.20;99.90
30702;DHT22;17451;49.908;7.980;2022-09-09T07:33:08;18.10;99.90
30702;DHT22;17451;49.908;7.980;2022-09-09T07:35:35;18.30;99.90
30702;DHT22;17451;49.908;7.980;2022-09-09T07:38:02;18.50;99.90
30702;DHT22;17451;49.908;7.980;2022-09-09T07:40:30;18.70;99.90
30702;DHT22;17451;49.908;7.980;2022-09-09T07:42:55;18.70;99.90
30702;DHT22;17451;49.908;7.980;2022-09-09T07:45:21;18.80;99.90
30702;DHT22;17451;49.908;7.980;2022-09-09T07:47:47;19.00;99.90
30702;DHT22;17451;49.908;7.980;2022-09-09T07:50:14;19.10;99.90
30702;DHT22;17451;49.908;7.980;2022-09-09T07:52:40;19.20;99.90
30702;DHT22;17451;49.908;7.980;2022-09-09T07:55:06;19.20;99.90
30702;DHT22;17451;49.908;7.980;2022-09-09T07:57:32;19.20;99.90
30702;DHT22;17451;49.908;7.980;2022-09-09T07:59:57;19.20;99.90
30702;DHT22;17451;49.908;7.980;2022-09-09T08:02:23;19.20;99.90
30702;DHT22;17451;49.908;7.980;2022-09-09T08:04:49;19.10;99.90
30702;DHT22;17451;49.908;7.980;2022-09-09T08:07:14;19.10;99.90
30702;DHT22;17451;49.908;7.980;2022-09-09T08:09:41;19.10;99.90
30702;DHT22;17451;49.908;7.980;2022-09-09T08:12:07;19.30;99.90
30702;DHT22;17451;49.908;7.980;2022-09-09T08:14:33;19.50;99.90
30702;DHT22;17451;49.908;7.980;2022-09-09T08:17:02;19.80;99.90
30702;DHT22;17451;49.908;7.980;2022-09-09T08:19:28;20.00;99.90
30702;DHT22;17451;49.908;7.980;2022-09-09T08:21:59;20.20;99.90
30702;DHT22;17451;49.908;7.980;2022-09-09T08:24:27;20.40;99.90
30702;DHT22;17451;49.908;7.980;2022-09-09T08:26:55;20.40;99.90
30702;DHT22;17451;49.908;7.980;2022-09-09T08:29:32;20.40;99.90
30702;DHT22;17451;49.908;7.980;2022-09-09T08:31:58;20.50;99.90
30702;DHT22;17451;49.908;7.980;2022-09-09T08:34:24;20.50;99.90
30702;DHT22;17451;49.908;7.980;2022-09-09T08:36:52;20.50;99.90
30702;DHT22;17451;49.908;7.980;2022-09-09T08:39:18;20.50;99.90
30702;DHT22;17451;49.908;7.980;2022-09-09T08:41:54;20.50;99.90
30702;DHT22;17451;49.908;7.980;2022-09-09T09:14:00;21.50;99.90
30702;DHT22;17451;49.908;7.980;2022-09-09T09:19:34;22.10;99.90
30702;DHT22;17451;49.908;7.980;2022-09-09T09:29:56;22.30;99.90
30702;DHT22;17451;49.908;7.980;2022-09-09T09:32:51;22.30;99.90
30702;DHT22;17451;49.908;7.980;2022-09-09T09:35:24;22.50;99.90
30702;DHT22;17451;49.908;7.980;2022-09-09T09:37:58;23.00;99.90
30702;DHT22;17451;49.908;7.980;2022-09-09T09:43:23;24.10;99.90
30702;DHT22;17451;49.908;7.980;2022-09-09T09:45:51;24.50;99.90
30702;DHT22;17451;49.908;7.980;2022-09-09T09:48:35;24.40;99.90
30702;DHT22;17451;49.908;7.980;2022-09-09T09:57:14;24.10;99.90
30702;DHT22;17451;49.908;7.980;2022-09-09T10:00:17;24.20;99.90
30702;DHT22;17451;49.908;7.980;2022-09-09T10:39:44;26.10;99.90
30702;DHT22;17451;49.908;7.980;2022-09-09T10:42:14;26.50;99.90
30702;DHT22;17451;49.908;7.980;2022-09-09T10:45:18;26.60;99.20
30702;DHT22;17451;49.908;7.980;2022-09-09T10:53:44;28.50;94.90
30702;DHT22;17451;49.908;7.980;2022-09-09T10:56:16;28.80;93.20
30702;DHT22;17451;49.908;7.980;2022-09-09T11:01:59;28.50;92.40
30702;DHT22;17451;49.908;7.980;2022-09-09T11:04:42;28.50;92.40
30702;DHT22;17451;49.908;7.980;2022-09-09T11:07:28;28.90;88.80
30702;DHT22;17451;49.908;7.980;2022-09-09T11:09:58;30.30;88.50
30702;DHT22;17451;49.908;7.980;2022-09-09T11:12:27;31.40;83.60
30702;DHT22;17451;49.908;7.980;2022-09-09T11:15:14;30.90;84.00
30702;DHT22;17451;49.908;7.980;2022-09-09T11:20:50;32.90;76.40
30702;DHT22;17451;49.908;7.980;2022-09-09T11:23:19;32.70;73.40
30702;DHT22;17451;49.908;7.980;2022-09-09T11:25:58;32.60;74.60
30702;DHT22;17451;49.908;7.980;2022-09-09T11:41:49;30.20;78.30
30702;DHT22;17451;49.908;7.980;2022-09-09T11:44:19;28.90;82.00
30702;DHT22;17451;49.908;7.980;2022-09-09T11:46:52;28.30;87.90
30702;DHT22;17451;49.908;7.980;2022-09-09T11:55:43;25.60;94.10
30702;DHT22;17451;49.908;7.980;2022-09-09T12:00:40;23.90;99.50
30702;DHT22;17451;49.908;7.980;2022-09-09T12:03:50;23.50;99.90
30702;DHT22;17451;49.908;7.980;2022-09-09T12:05:56;22.90;99.90
30702;DHT22;17451;49.908;7.980;2022-09-09T12:08:27;22.20;99.90
30702;DHT22;17451;49.908;7.980;2022-09-09T12:11:09;21.80;99.90
30702;DHT22;17451;49.908;7.980;2022-09-09T12:13:54;21.80;99.90
30702;DHT22;17451;49.908;7.980;2022-09-09T12:19:18;21.90;99.90
30702;DHT22;17451;49.908;7.980;2022-09-09T12:25:16;24.90;99.90
30702;DHT22;17451;49.908;7.980;2022-09-09T12:30:22;29.90;95.40
30702;DHT22;17451;49.908;7.980;2022-09-09T12:47:53;33.40;77.80
30702;DHT22;17451;49.908;7.980;2022-09-09T12:56:08;35.30;70.30
30702;DHT22;17451;49.908;7.980;2022-09-09T12:58:54;34.40;68.50
30702;DHT22;17451;49.908;7.980;2022-09-09T13:03:58;34.10;70.10
30702;DHT22;17451;49.908;7.980;2022-09-09T14:27:50;21.80;99.90
30702;DHT22;17451;49.908;7.980;2022-09-09T14:30:20;21.60;99.90
30702;DHT22;17451;49.908;7.980;2022-09-09T14:36:02;21.60;99.90
30702;DHT22;17451;49.908;7.980;2022-09-09T14:38:39;21.50;99.90
30702;DHT22;17451;49.908;7.980;2022-09-09T14:47:25;21.10;99.90
30702;DHT22;17451;49.908;7.980;2022-09-09T14:49:54;21.00;99.90
30702;DHT22;17451;49.908;7.980;2022-09-09T15:20:59;21.10;99.90
30702;DHT22;17451;49.908;7.980;2022-09-09T15:52:48;20.90;99.90
30702;DHT22;17451;49.908;7.980;2022-09-09T16:04:25;21.00;99.90
30702;DHT22;17451;49.908;7.980;2022-09-09T16:24:05;20.90;99.90
30702;DHT22;17451;49.908;7.980;2022-09-09T16:26:42;20.70;99.90
30702;DHT22;17451;49.908;7.980;2022-09-09T16:29:20;20.50;99.90
30702;DHT22;17451;49.908;7.980;2022-09-09T16:31:52;20.40;99.90
30702;DHT22;17451;49.908;7.980;2022-09-09T16:34:23;20.40;99.90
30702;DHT22;17451;49.908;7.980;2022-09-09T16:36:50;20.50;99.90
30702;DHT22;17451;49.908;7.980;2022-09-09T16:39:17;20.50;99.90
30702;DHT22;17451;49.908;7.980;2022-09-09T16:41:44;20.60;99.90
30702;DHT22;17451;49.908;7.980;2022-09-09T16:44:10;20.60;99.90
30702;DHT22;17451;49.908;7.980;2022-09-09T16:46:37;20.40;99.90
30702;DHT22;17451;49.908;7.980;2022-09-09T16:49:08;20.40;99.90
30702;DHT22;17451;49.908;7.980;2022-09-09T16:51:35;20.30;99.90
30702;DHT22;17451;49.908;7.980;2022-09-09T16:54:01;20.20;99.90
30702;DHT22;17451;49.908;7.980;2022-09-09T16:56:29;20.10;99.90
30702;DHT22;17451;49.908;7.980;2022-09-09T16:58:56;19.90;99.90
30702;DHT22;17451;49.908;7.980;2022-09-09T17:01:22;19.40;99.90
30702;DHT22;17451;49.908;7.980;2022-09-09T17:03:52;19.20;99.90
30702;DHT22;17451;49.908;7.980;2022-09-09T17:06:17;19.00;99.90
30702;DHT22;17451;49.908;7.980;2022-09-09T17:08:43;19.00;99.90
30702;DHT22;17451;49.908;7.980;2022-09-09T17:11:12;19.10;99.90
30702;DHT22;17451;49.908;7.980;2022-09-09T17:13:40;19.10;99.90
30702;DHT22;17451;49.908;7.980;2022-09-09T17:16:06;19.10;99.90
30702;DHT22;17451;49.908;7.980;2022-09-09T17:18:31;19.00;99.90
30702;DHT22;17451;49.908;7.980;2022-09-09T17:21:02;19.10;99.90
30702;DHT22;17451;49.908;7.980;2022-09-09T17:23:28;19.10;99.90
30702;DHT22;17451;49.908;7.980;2022-09-09T17:25:57;18.90;99.90
30702;DHT22;17451;49.908;7.980;2022-09-09T17:28:23;18.70;99.90
30702;DHT22;17451;49.908;7.980;2022-09-09T17:30:52;18.80;99.90
30702;DHT22;17451;49.908;7.980;2022-09-09T17:33:18;18.90;99.90
30702;DHT22;17451;49.908;7.980;2022-09-09T17:35:45;19.00;99.90
30702;DHT22;17451;49.908;7.980;2022-09-09T17:38:10;19.00;99.90
30702;DHT22;17451;49.908;7.980;2022-09-09T17:40:37;19.10;99.90
30702;DHT22;17451;49.908;7.980;2022-09-09T17:43:06;19.00;99.90
30702;DHT22;17451;49.908;7.980;2022-09-09T17:45:33;18.90;99.90
30702;DHT22;17451;49.908;7.980;2022-09-09T17:48:02;18.70;99.90
30702;DHT22;17451;49.908;7.980;2022-09-09T17:50:31;18.70;99.90
30702;DHT22;17451;49.908;7.980;2022-09-09T17:52:59;18.70;99.90
30702;DHT22;17451;49.908;7.980;2022-09-09T17:55:24;18.60;99.90
30702;DHT22;17451;49.908;7.980;2022-09-09T17:57:50;18.40;99.90
30702;DHT22;17451;49.908;7.980;2022-09-09T18:00:21;18.50;99.90
30702;DHT22;17451;49.908;7.980;2022-09-09T18:02:46;18.50;99.90
30702;DHT22;17451;49.908;7.980;2022-09-09T18:05:14;18.60;99.90
30702;DHT22;17451;49.908;7.980;2022-09-09T18:07:43;18.60;99.90
30702;DHT22;17451;49.908;7.980;2022-09-09T18:10:09;18.50;99.90
30702;DHT22;17451;49.908;7.980;2022-09-09T18:12:34;18.50;99.90
30702;DHT22;17451;49.908;7.980;2022-09-09T18:15:00;18.50;99.90
30702;DHT22;17451;49.908;7.980;2022-09-09T18:17:26;18.50;99.90
30702;DHT22;17451;49.908;7.980;2022-09-09T18:19:54;18.50;99.90
30702;DHT22;17451;49.908;7.980;2022-09-09T18:22:20;18.40;99.90
30702;DHT22;17451;49.908;7.980;2022-09-09T18:24:47;18.30;99.90
30702;DHT22;17451;49.908;7.980;2022-09-09T18:30:00;18.00;99.90
30702;DHT22;17451;49.908;7.980;2022-09-09T18:32:26;17.90;99.90
30702;DHT22;17451;49.908;7.980;2022-09-09T18:34:53;17.70;99.90
30702;DHT22;17451;49.908;7.980;2022-09-09T18:37:29;17.70;99.90
30702;DHT22;17451;49.908;7.980;2022-09-09T18:40:01;17.60;99.90
30702;DHT22;17451;49.908;7.980;2022-09-09T18:42:27;17.30;99.90
30702;DHT22;17451;49.908;7.980;2022-09-09T18:44:52;17.00;99.90
30702;DHT22;17451;49.908;7.980;2022-09-09T18:47:18;16.80;99.90
30702;DHT22;17451;49.908;7.980;2022-09-09T18:49:46;16.50;99.90
30702;DHT22;17451;49.908;7.980;2022-09-09T18:52:15;16.40;99.90
30702;DHT22;17451;49.908;7.980;2022-09-09T18:54:41;16.40;99.90
30702;DHT22;17451;49.908;7.980;2022-09-09T18:57:10;16.40;99.90
30702;DHT22;17451;49.908;7.980;2022-09-09T18:59:36;16.60;99.90
30702;DHT22;17451;49.908;7.980;2022-09-09T19:02:02;16.50;99.90
30702;DHT22;17451;49.908;7.980;2022-09-09T19:04:28;16.50;99.90
30702;DHT22;17451;49.908;7.980;2022-09-09T19:06:55;16.40;99.90
30702;DHT22;17451;49.908;7.980;2022-09-09T19:09:28;16.40;99.90
30702;DHT22;17451;49.908;7.980;2022-09-09T19:11:55;16.20;99.90
30702;DHT22;17451;49.908;7.980;2022-09-09T19:14:21;16.20;99.90
30702;DHT22;17451;49.908;7.980;2022-09-09T19:16:47;16.10;99.90
30702;DHT22;17451;49.908;7.980;2022-09-09T19:19:20;16.10;99.90
30702;DHT22;17451;49.908;7.980;2022-09-09T19:21:46;16.10;99.90
30702;DHT22;17451;49.908;7.980;2022-09-09T19:24:17;16.00;99.90
30702;DHT22;17451;49.908;7.980;2022-09-09T19:26:46;15.90;99.90
30702;DHT22;17451;49.908;7.980;2022-09-09T19:29:23;15.80;99.90
30702;DHT22;17451;49.908;7.980;2022-09-09T19:31:49;16.00;99.90
30702;DHT22;17451;49.908;7.980;2022-09-09T19:34:33;16.00;99.90
30702;DHT22;17451;49.908;7.980;2022-09-09T19:39:48;16.10;99.90
30702;DHT22;17451;49.908;7.980;2022-09-09T19:42:14;16.00;99.90
30702;DHT22;17451;49.908;7.980;2022-09-09T19:44:40;16.00;99.90
30702;DHT22;17451;49.908;7.980;2022-09-09T19:47:11;16.10;99.90
30702;DHT22;17451;49.908;7.980;2022-09-09T19:49:42;16.20;99.90
30702;DHT22;17451;49.908;7.980;2022-09-09T21:31:19;15.70;99.90
30702;DHT22;17451;49.908;7.980;2022-09-09T21:54:36;16.20;99.90
30702;DHT22;17451;49.908;7.980;2022-09-09T21:57:22;16.20;99.90
30702;DHT22;17451;49.908;7.980;2022-09-09T21:59:58;16.30;99.90
30702;DHT22;17451;49.908;7.980;2022-09-09T22:02:53;16.30;99.90
30702;DHT22;17451;49.908;7.980;2022-09-09T22:05:19;16.30;99.90
30702;DHT22;17451;49.908;7.980;2022-09-09T22:07:45;16.20;99.90
30702;DHT22;17451;49.908;7.980;2022-09-09T22:10:21;16.30;99.90
30702;DHT22;17451;49.908;7.980;2022-09-09T22:12:56;16.20;99.90
30702;DHT22;17451;49.908;7.980;2022-09-09T22:15:31;16.20;99.90
30702;DHT22;17451;49.908;7.980;2022-09-09T22:18:01;16.20;99.90
30702;DHT22;17451;49.908;7.980;2022-09-09T22:20:50;16.20;99.90
30702;DHT22;17451;49.908;7.980;2022-09-09T22:26:46;16.20;99.90
30702;DHT22;17451;49.908;7.980;2022-09-09T22:29:11;16.10;99.90
30702;DHT22;17451;49.908;7.980;2022-09-09T22:31:37;15.80;99.90
30702;DHT22;17451;49.908;7.980;2022-09-09T22:34:05;15.70;99.90
30702;DHT22;17451;49.908;7.980;2022-09-09T22:36:31;15.70;99.90
30702;DHT22;17451;49.908;7.980;2022-09-09T22:38:57;15.80;99.90
30702;DHT22;17451;49.908;7.980;2022-09-09T22:41:23;15.90;99.90
30702;DHT22;17451;49.908;7.980;2022-09-09T22:43:49;15.90;99.90
30702;DHT22;17451;49.908;7.980;2022-09-09T22:46:15;16.00;99.90
30702;DHT22;17451;49.908;7.980;2022-09-09T22:48:40;16.10;99.90
30702;DHT22;17451;49.908;7.980;2022-09-09T22:51:09;16.20;99.90
30702;DHT22;17451;49.908;7.980;2022-09-09T22:53:38;16.20;99.90
30702;DHT22;17451;49.908;7.980;2022-09-09T22:56:04;16.30;99.90
30702;DHT22;17451;49.908;7.980;2022-09-09T22:58:32;16.40;99.90
30702;DHT22;17451;49.908;7.980;2022-09-09T23:00:58;16.40;99.90
30702;DHT22;17451;49.908;7.980;2022-09-09T23:03:24;16.40;99.90
30702;DHT22;17451;49.908;7.980;2022-09-09T23:05:54;16.30;99.90
30702;DHT22;17451;49.908;7.980;2022-09-09T23:08:22;16.40;99.90
30702;DHT22;17451;49.908;7.980;2022-09-09T23:10:50;16.50;99.90
30702;DHT22;17451;49.908;7.980;2022-09-09T23:13:20;16.50;99.90
30702;DHT22;17451;49.908;7.980;2022-09-09T23:15:46;16.50;99.90
30702;DHT22;17451;49.908;7.980;2022-09-09T23:18:12;16.50;99.90
30702;DHT22;17451;49.908;7.980;2022-09-09T23:20:39;16.50;99.90
30702;DHT22;17451;49.908;7.980;2022-09-09T23:23:05;16.50;99.90
30702;DHT22;17451;49.908;7.980;2022-09-09T23:25:33;16.40;99.90
30702;DHT22;17451;49.908;7.980;2022-09-09T23:27:59;16.40;99.90
30702;DHT22;17451;49.908;7.980;2022-09-09T23:30:24;16.40;99.90
30702;DHT22;17451;49.908;7.980;2022-09-09T23:32:50;16.40;99.90
30702;DHT22;17451;49.908;7.980;2022-09-09T23:35:16;16.30;99.90
30702;DHT22;17451;49.908;7.980;2022-09-09T23:37:41;16.30;99.90
30702;DHT22;17451;49.908;7.980;2022-09-09T23:40:07;16.40;99.90
30702;DHT22;17451;49.908;7.980;2022-09-09T23:42:33;16.40;99.90
30702;DHT22;17451;49.908;7.980;2022-09-09T23:44:58;16.30;99.90
30702;DHT22;17451;49.908;7.980;2022-09-09T23:47:24;16.10;99.90
30702;DHT22;17451;49.908;7.980;2022-09-09T23:49:49;16.10;99.90
30702;DHT22;17451;49.908;7.980;2022-09-09T23:52:16;16.00;99.90
30702;DHT22;17451;49.908;7.980;2022-09-09T23:54:42;16.00;99.90
30702;DHT22;17451;49.908;7.980;2022-09-09T23:57:11;15.80;99.90
30702;DHT22;17451;49.908;7.980;2022-09-09T23:59:38;15.80;99.90
